sensor_id;sensor_type;location;lat;lon;timestamp;pressure;altitude;pressure_sealevel;temperature;humidity
39309;BME280;26019;47.510;19.122;2023-05-23T00:04:46;99975.03;;;15.03;100.00
39309;BME280;26019;47.510;19.122;2023-05-23T00:14:48;99962.91;;;15.02;100.00
39309;BME280;26019;47.510;19.122;2023-05-23T00:24:51;99963.09;;;14.96;100.00
39309;BME280;26019;47.510;19.122;2023-05-23T00:34:53;99962.97;;;15.01;100.00
39309;BME280;26019;47.510;19.122;2023-05-23T00:44:56;99970.22;;;14.89;100.00
39309;BME280;26019;47.510;19.122;2023-05-23T00:54:58;99970.47;;;14.82;100.00
39309;BME280;26019;47.510;19.122;2023-05-23T01:05:02;99958.44;;;14.77;100.00
39309;BME280;26019;47.510;19.122;2023-05-23T01:15:14;99964.72;;;14.70;100.00
39309;BME280;26019;47.510;19.122;2023-05-23T01:36:01;99963.69;;;14.43;100.00
39309;BME280;26019;47.510;19.122;2023-05-23T01:46:06;99956.19;;;14.33;100.00
39309;BME280;26019;47.510;19.122;2023-05-23T01:56:09;99958.25;;;14.21;100.00
39309;BME280;26019;47.510;19.122;2023-05-23T02:06:11;99946.47;;;14.07;100.00
39309;BME280;26019;47.510;19.122;2023-05-23T02:16:13;99932.81;;;13.99;100.00
39309;BME280;26019;47.510;19.122;2023-05-23T02:26:14;99935.84;;;13.83;100.00
39309;BME280;26019;47.510;19.122;2023-05-23T02:36:16;99946.44;;;13.74;100.00
39309;BME280;26019;47.510;19.122;2023-05-23T02:46:18;99928.16;;;13.79;100.00
39309;BME280;26019;47.510;19.122;2023-05-23T02:56:20;99933.41;;;13.77;100.00
39309;BME280;26019;47.510;19.122;2023-05-23T03:06:22;99919.97;;;13.59;100.00
39309;BME280;26019;47.510;19.122;2023-05-23T03:16:24;99922.63;;;13.58;100.00
39309;BME280;26019;47.510;19.122;2023-05-23T03:26:26;99926.78;;;13.64;100.00
39309;BME280;26019;47.510;19.122;2023-05-23T03:36:28;99937.03;;;13.70;100.00
39309;BME280;26019;47.510;19.122;2023-05-23T03:46:29;99928.88;;;13.84;100.00
39309;BME280;26019;47.510;19.122;2023-05-23T03:56:32;99929.41;;;13.97;100.00
39309;BME280;26019;47.510;19.122;2023-05-23T04:06:33;99935.03;;;14.14;100.00
39309;BME280;26019;47.510;19.122;2023-05-23T04:16:36;99932.34;;;14.49;100.00
39309;BME280;26019;47.510;19.122;2023-05-23T04:26:39;99942.19;;;14.69;100.00
39309;BME280;26019;47.510;19.122;2023-05-23T04:36:48;99929.25;;;14.96;100.00
39309;BME280;26019;47.510;19.122;2023-05-23T04:46:50;99924.22;;;15.20;100.00
39309;BME280;26019;47.510;19.122;2023-05-23T04:56:52;99927.84;;;15.43;100.00
39309;BME280;26019;47.510;19.122;2023-05-23T05:06:54;99938.94;;;15.75;100.00
39309;BME280;26019;47.510;19.122;2023-05-23T05:16:56;99932.91;;;16.00;100.00
39309;BME280;26019;47.510;19.122;2023-05-23T05:26:59;99929.75;;;16.40;100.00
39309;BME280;26019;47.510;19.122;2023-05-23T05:37:04;99934.34;;;16.81;100.00
39309;BME280;26019;47.510;19.122;2023-05-23T05:47:06;99937.53;;;17.34;100.00
39309;BME280;26019;47.510;19.122;2023-05-23T05:57:08;99930.03;;;17.90;100.00
39309;BME280;26019;47.510;19.122;2023-05-23T06:07:10;99934.81;;;18.21;100.00
39309;BME280;26019;47.510;19.122;2023-05-23T06:17:12;99930.03;;;18.31;100.00
39309;BME280;26019;47.510;19.122;2023-05-23T06:27:16;99931.06;;;18.86;100.00
39309;BME280;26019;47.510;19.122;2023-05-23T06:37:18;99927.81;;;19.54;100.00
39309;BME280;26019;47.510;19.122;2023-05-23T06:47:19;99930.03;;;20.15;100.00
39309;BME280;26019;47.510;19.122;2023-05-23T06:57:21;99922.53;;;20.74;100.00
39309;BME280;26019;47.510;19.122;2023-05-23T07:07:24;99918.72;;;21.12;91.89
39309;BME280;26019;47.510;19.122;2023-05-23T07:17:26;99905.91;;;21.69;92.58
39309;BME280;26019;47.510;19.122;2023-05-23T07:27:30;99903.69;;;22.06;83.80
39309;BME280;26019;47.510;19.122;2023-05-23T07:37:32;99903.72;;;22.49;87.29
39309;BME280;26019;47.510;19.122;2023-05-23T07:47:36;99897.94;;;22.99;75.95
39309;BME280;26019;47.510;19.122;2023-05-23T07:57:38;99894.47;;;23.26;66.91
39309;BME280;26019;47.510;19.122;2023-05-23T08:07:40;99885.25;;;23.59;63.80
39309;BME280;26019;47.510;19.122;2023-05-23T08:17:42;99881.06;;;23.95;62.70
39309;BME280;26019;47.510;19.122;2023-05-23T08:27:44;99889.22;;;24.55;58.36
39309;BME280;26019;47.510;19.122;2023-05-23T08:37:46;99894.22;;;24.84;57.84
39309;BME280;26019;47.510;19.122;2023-05-23T08:47:51;99882.25;;;25.16;57.61
39309;BME280;26019;47.510;19.122;2023-05-23T08:57:54;99882.78;;;25.57;53.84
39309;BME280;26019;47.510;19.122;2023-05-23T09:07:56;99879.81;;;25.84;51.14
39309;BME280;26019;47.510;19.122;2023-05-23T09:17:59;99880.59;;;26.32;51.48
39309;BME280;26019;47.510;19.122;2023-05-23T09:28:04;99884.66;;;29.87;41.09
39309;BME280;26019;47.510;19.122;2023-05-23T09:38:06;99865.66;;;32.26;35.96
39309;BME280;26019;47.510;19.122;2023-05-23T09:48:11;99872.47;;;32.20;36.05
39309;BME280;26019;47.510;19.122;2023-05-23T09:58:16;99871.81;;;34.25;31.15
39309;BME280;26019;47.510;19.122;2023-05-23T10:08:27;99862.53;;;33.88;30.77
39309;BME280;26019;47.510;19.122;2023-05-23T10:18:36;99846.25;;;35.69;30.42
39309;BME280;26019;47.510;19.122;2023-05-23T10:28:40;99843.91;;;31.51;31.95
39309;BME280;26019;47.510;19.122;2023-05-23T10:38:52;99838.34;;;34.76;28.47
39309;BME280;26019;47.510;19.122;2023-05-23T10:49:00;99843.44;;;30.57;35.61
39309;BME280;26019;47.510;19.122;2023-05-23T10:59:04;99820.50;;;33.40;30.93
39309;BME280;26019;47.510;19.122;2023-05-23T11:09:10;99803.22;;;34.86;28.01
39309;BME280;26019;47.510;19.122;2023-05-23T11:29:31;99787.94;;;37.36;26.53
39309;BME280;26019;47.510;19.122;2023-05-23T11:39:33;99775.41;;;37.99;24.67
39309;BME280;26019;47.510;19.122;2023-05-23T11:49:36;99749.16;;;36.74;25.30
39309;BME280;26019;47.510;19.122;2023-05-23T11:59:41;99752.69;;;35.57;26.28
39309;BME280;26019;47.510;19.122;2023-05-23T12:09:45;99733.31;;;41.37;21.13
39309;BME280;26019;47.510;19.122;2023-05-23T12:19:48;99726.13;;;35.48;26.60
39309;BME280;26019;47.510;19.122;2023-05-23T12:29:50;99707.84;;;35.43;26.79
39309;BME280;26019;47.510;19.122;2023-05-23T12:39:52;99696.50;;;35.78;25.40
39309;BME280;26019;47.510;19.122;2023-05-23T12:49:54;99691.91;;;35.41;25.92
39309;BME280;26019;47.510;19.122;2023-05-23T12:59:56;99685.00;;;38.91;21.78
39309;BME280;26019;47.510;19.122;2023-05-23T13:09:58;99664.09;;;39.38;20.44
39309;BME280;26019;47.510;19.122;2023-05-23T13:20:03;99655.72;;;38.88;20.76
39309;BME280;26019;47.510;19.122;2023-05-23T13:30:07;99660.41;;;41.17;19.98
39309;BME280;26019;47.510;19.122;2023-05-23T13:40:16;99657.91;;;40.02;19.42
39309;BME280;26019;47.510;19.122;2023-05-23T13:50:20;99659.28;;;38.61;20.85
39309;BME280;26019;47.510;19.122;2023-05-23T14:00:23;99636.53;;;35.55;24.78
39309;BME280;26019;47.510;19.122;2023-05-23T14:10:27;99642.06;;;36.12;22.91
39309;BME280;26019;47.510;19.122;2023-05-23T14:20:29;99624.91;;;35.92;24.58
39309;BME280;26019;47.510;19.122;2023-05-23T14:30:32;99618.63;;;32.37;28.45
39309;BME280;26019;47.510;19.122;2023-05-23T14:40:33;99624.22;;;37.32;22.39
39309;BME280;26019;47.510;19.122;2023-05-23T14:50:35;99620.63;;;36.19;23.46
39309;BME280;26019;47.510;19.122;2023-05-23T15:00:39;99624.63;;;37.91;21.24
39309;BME280;26019;47.510;19.122;2023-05-23T15:10:42;99630.63;;;36.54;22.79
39309;BME280;26019;47.510;19.122;2023-05-23T15:20:46;99641.31;;;35.75;24.48
39309;BME280;26019;47.510;19.122;2023-05-23T15:30:48;99645.81;;;30.34;31.54
39309;BME280;26019;47.510;19.122;2023-05-23T15:40:50;99644.31;;;28.14;37.66
39309;BME280;26019;47.510;19.122;2023-05-23T15:50:55;99644.44;;;28.13;37.50
39309;BME280;26019;47.510;19.122;2023-05-23T16:00:59;99635.34;;;26.41;38.65
39309;BME280;26019;47.510;19.122;2023-05-23T16:11:01;99636.19;;;25.64;42.32
39309;BME280;26019;47.510;19.122;2023-05-23T16:21:03;99633.16;;;25.35;43.65
39309;BME280;26019;47.510;19.122;2023-05-23T16:31:06;99624.53;;;25.10;44.90
39309;BME280;26019;47.510;19.122;2023-05-23T16:41:15;99645.22;;;24.58;47.55
39309;BME280;26019;47.510;19.122;2023-05-23T16:51:17;99659.34;;;24.21;50.33
39309;BME280;26019;47.510;19.122;2023-05-23T17:01:19;99653.06;;;23.74;54.52
39309;BME280;26019;47.510;19.122;2023-05-23T17:11:22;99670.66;;;23.23;56.95
39309;BME280;26019;47.510;19.122;2023-05-23T17:21:24;99764.22;;;23.03;61.22
39309;BME280;26019;47.510;19.122;2023-05-23T17:31:26;99790.75;;;21.45;70.41
39309;BME280;26019;47.510;19.122;2023-05-23T17:41:31;99801.34;;;20.66;86.42
39309;BME280;26019;47.510;19.122;2023-05-23T17:51:32;99811.53;;;20.24;96.91
39309;BME280;26019;47.510;19.122;2023-05-23T18:01:34;99833.59;;;19.87;100.00
39309;BME280;26019;47.510;19.122;2023-05-23T18:11:36;99852.78;;;19.53;100.00
39309;BME280;26019;47.510;19.122;2023-05-23T18:21:38;99842.81;;;19.25;100.00
39309;BME280;26019;47.510;19.122;2023-05-23T18:31:40;99849.13;;;19.21;100.00
39309;BME280;26019;47.510;19.122;2023-05-23T18:41:45;99854.69;;;19.32;100.00
39309;BME280;26019;47.510;19.122;2023-05-23T18:51:47;99863.31;;;19.34;100.00
39309;BME280;26019;47.510;19.122;2023-05-23T19:01:50;99895.22;;;19.43;100.00
39309;BME280;26019;47.510;19.122;2023-05-23T19:11:52;99894.03;;;19.31;100.00
39309;BME280;26019;47.510;19.122;2023-05-23T19:21:54;99886.63;;;18.85;100.00
39309;BME280;26019;47.510;19.122;2023-05-23T19:32:02;99899.50;;;18.51;100.00
39309;BME280;26019;47.510;19.122;2023-05-23T19:42:06;99916.59;;;18.39;100.00
39309;BME280;26019;47.510;19.122;2023-05-23T19:52:08;99868.94;;;18.13;100.00
39309;BME280;26019;47.510;19.122;2023-05-23T20:02:19;99869.84;;;18.12;100.00
39309;BME280;26019;47.510;19.122;2023-05-23T20:12:21;99872.94;;;17.81;100.00
39309;BME280;26019;47.510;19.122;2023-05-23T20:22:25;99871.50;;;17.73;100.00
39309;BME280;26019;47.510;19.122;2023-05-23T20:32:27;99889.25;;;17.65;100.00
39309;BME280;26019;47.510;19.122;2023-05-23T20:42:28;99880.38;;;17.69;100.00
39309;BME280;26019;47.510;19.122;2023-05-23T20:52:34;99849.41;;;17.60;100.00
39309;BME280;26019;47.510;19.122;2023-05-23T21:02:41;99893.03;;;17.58;100.00
39309;BME280;26019;47.510;19.122;2023-05-23T21:12:44;99893.69;;;17.42;100.00
39309;BME280;26019;47.510;19.122;2023-05-23T21:22:50;99925.03;;;17.20;100.00
39309;BME280;26019;47.510;19.122;2023-05-23T21:32:52;99929.31;;;17.00;100.00
39309;BME280;26019;47.510;19.122;2023-05-23T21:42:54;99951.16;;;16.72;100.00
39309;BME280;26019;47.510;19.122;2023-05-23T21:52:55;99966.44;;;16.83;100.00
39309;BME280;26019;47.510;19.122;2023-05-23T22:02:58;99958.75;;;16.80;100.00
39309;BME280;26019;47.510;19.122;2023-05-23T22:13:00;99975.06;;;16.62;100.00
39309;BME280;26019;47.510;19.122;2023-05-23T22:23:03;99974.44;;;16.55;100.00
39309;BME280;26019;47.510;19.122;2023-05-23T22:33:06;99972.75;;;16.28;100.00
39309;BME280;26019;47.510;19.122;2023-05-23T22:43:13;99972.53;;;16.09;100.00
39309;BME280;26019;47.510;19.122;2023-05-23T22:53:15;99977.03;;;16.06;100.00
39309;BME280;26019;47.510;19.122;2023-05-23T23:03:17;99969.13;;;16.07;100.00
39309;BME280;26019;47.510;19.122;2023-05-23T23:13:19;99957.34;;;16.22;100.00
39309;BME280;26019;47.510;19.122;2023-05-23T23:23:21;99960.50;;;16.31;100.00
39309;BME280;26019;47.510;19.122;2023-05-23T23:33:22;99961.28;;;16.58;100.00
39309;BME280;26019;47.510;19.122;2023-05-23T23:43:24;99951.34;;;16.68;100.00
39309;BME280;26019;47.510;19.122;2023-05-23T23:53:26;99967.34;;;16.82;100.00
